Time;durP1;ratioP1;P1;durP2;ratioP2;P2;SDS_P1;SDS_P2;PMS_P1;PMS_P2;Temp;Humidity;BMP_temperature;BMP_pressure;BME280_temperature;BME280_humidity;BME280_pressure;Samples;Min_cycle;Max_cycle;Signal;HPM_P1;HPM_P2
2022/05/10 06:38:34;;;;;;;5.10;4.70;;;20.10;99.90;;;;;;5132133;27;20960;-74
2022/05/10 06:41:03;;;;;;;5.13;4.82;;;17.80;99.90;;;;;;5131750;28;20215;-74
2022/05/10 06:43:29;;;;;;;5.57;5.15;;;17.90;99.90;;;;;;5131734;28;20286;-75
2022/05/10 06:45:58;;;;;;;5.00;4.68;;;17.90;99.90;;;;;;5131189;28;20199;-75
2022/05/10 06:48:24;;;;;;;7.43;5.38;;;18.00;99.90;;;;;;5131639;28;20185;-74
2022/05/10 06:50:51;;;;;;;5.10;4.70;;;18.00;99.90;;;;;;5131756;28;20162;-75
2022/05/10 06:53:16;;;;;;;5.18;4.78;;;18.10;99.90;;;;;;5113500;28;20568;-75
2022/05/10 06:55:42;;;;;;;6.45;5.30;;;18.10;99.90;;;;;;5131800;28;20249;-75
2022/05/10 06:58:09;;;;;;;4.93;4.53;;;18.10;99.90;;;;;;5131597;28;20281;-74
2022/05/10 07:00:38;;;;;;;5.93;5.05;;;18.10;99.90;;;;;;5131713;28;20245;-75
2022/05/10 07:03:09;;;;;;;5.75;5.13;;;18.10;99.90;;;;;;5131727;28;20177;-75
2022/05/10 07:05:35;;;;;;;5.10;4.80;;;18.10;99.90;;;;;;5131718;28;20166;-75
2022/05/10 07:08:01;;;;;;;5.50;5.07;;;18.00;99.90;;;;;;5131380;28;20162;-75
2022/05/10 07:10:27;;;;;;;5.53;5.10;;;18.00;99.90;;;;;;5131455;28;20647;-75
2022/05/10 07:12:54;;;;;;;5.47;4.97;;;18.00;99.90;;;;;;5131360;28;20214;-75
2022/05/10 07:15:21;;;;;;;5.45;4.95;;;18.00;99.90;;;;;;5131353;28;20189;-75
2022/05/10 07:17:47;;;;;;;5.47;5.07;;;18.00;99.90;;;;;;5131298;28;20772;-74
2022/05/10 07:20:14;;;;;;;4.88;4.55;;;18.00;99.90;;;;;;5131417;28;20162;-74
2022/05/10 07:22:40;;;;;;;5.65;4.75;;;18.00;99.90;;;;;;5131228;28;20166;-75
2022/05/10 07:25:06;;;;;;;5.80;5.30;;;18.10;99.90;;;;;;5131146;28;20176;-74
2022/05/10 07:27:32;;;;;;;5.25;4.95;;;18.10;99.90;;;;;;5131187;28;20253;-74
2022/05/10 07:29:58;;;;;;;5.18;4.53;;;18.10;99.90;;;;;;5131195;28;20608;-75
2022/05/10 07:32:25;;;;;;;6.63;4.85;;;18.10;99.90;;;;;;5131073;28;20166;-75
2022/05/10 07:34:51;;;;;;;4.88;4.57;;;18.20;99.90;;;;;;5131034;28;20530;-75
2022/05/10 07:37:17;;;;;;;5.90;4.70;;;18.20;99.90;;;;;;5130753;28;20217;-75
2022/05/10 07:39:42;;;;;;;6.03;5.22;;;18.20;99.90;;;;;;5130869;28;20219;-75
2022/05/10 07:42:08;;;;;;;5.53;4.65;;;18.30;99.90;;;;;;5131016;28;20162;-75
2022/05/10 07:44:34;;;;;;;9.05;5.55;;;18.30;99.90;;;;;;5130821;28;20162;-75
2022/05/10 07:47:00;;;;;;;4.90;4.60;;;18.40;99.90;;;;;;5130844;28;20189;-75
2022/05/10 07:49:26;;;;;;;5.63;5.00;;;18.40;99.90;;;;;;5119735;28;20205;-75
2022/05/10 07:51:52;;;;;;;6.45;4.72;;;18.60;99.90;;;;;;5117236;28;20527;-75
2022/05/10 07:54:18;;;;;;;4.30;4.10;;;18.70;99.90;;;;;;5117043;28;20173;-75
2022/05/10 07:56:44;;;;;;;5.90;4.80;;;18.70;99.90;;;;;;5116937;28;20194;-75
2022/05/10 07:59:09;;;;;;;4.60;4.30;;;18.90;99.90;;;;;;5117038;28;20167;-75
2022/05/10 08:01:35;;;;;;;4.47;4.15;;;18.90;99.90;;;;;;5116769;28;20170;-75
2022/05/10 08:04:01;;;;;;;5.13;4.60;;;19.00;99.90;;;;;;5116762;28;20578;-75
2022/05/10 08:06:27;;;;;;;5.50;4.72;;;19.00;99.90;;;;;;5116593;28;20245;-75
2022/05/10 08:08:53;;;;;;;4.82;4.50;;;19.10;99.90;;;;;;5116921;28;20258;-75
2022/05/10 08:11:19;;;;;;;5.63;5.07;;;19.10;99.90;;;;;;5116667;28;20170;-75
2022/05/10 08:13:44;;;;;;;6.97;4.47;;;19.30;99.90;;;;;;5116649;28;20178;-75
2022/05/10 08:16:10;;;;;;;4.95;4.55;;;19.30;99.90;;;;;;5116430;28;20194;-75
2022/05/10 08:18:39;;;;;;;6.68;4.55;;;19.40;99.90;;;;;;5116455;28;20167;-75
2022/05/10 08:21:05;;;;;;;5.55;5.05;;;19.50;99.90;;;;;;5116312;28;20532;-75
2022/05/10 08:23:33;;;;;;;5.47;5.00;;;19.50;99.90;;;;;;5116464;28;20191;-75
2022/05/10 08:26:00;;;;;;;6.75;4.65;;;19.60;99.90;;;;;;5116222;28;20173;-75
2022/05/10 08:28:28;;;;;;;4.90;4.50;;;19.60;99.90;;;;;;5116342;28;20219;-75
2022/05/10 08:30:54;;;;;;;4.85;4.30;;;19.50;99.90;;;;;;5116237;28;20253;-75
2022/05/10 08:33:26;;;;;;;5.45;4.95;;;19.60;99.90;;;;;;5116171;28;20562;-75
2022/05/10 08:35:53;;;;;;;5.50;4.28;;;19.60;99.90;;;;;;5114941;28;20264;-75
2022/05/10 08:38:19;;;;;;;5.32;4.97;;;19.50;99.90;;;;;;5115652;28;20218;-75
2022/05/10 08:41:14;;;;;;;9.45;4.78;;;19.70;99.90;;;;;;5115973;28;20166;-75
2022/05/10 08:44:07;;;;;;;4.45;4.05;;;19.80;99.90;;;;;;5116105;28;20652;-75
2022/05/10 08:46:39;;;;;;;5.22;4.38;;;19.80;99.90;;;;;;5115997;28;20197;-75
2022/05/10 08:49:13;;;;;;;4.63;4.20;;;19.90;99.90;;;;;;5114613;28;20185;-75
2022/05/10 08:51:39;;;;;;;4.43;4.10;;;20.00;99.90;;;;;;5114487;28;20181;-75
2022/05/10 08:54:04;;;;;;;4.97;4.47;;;20.10;99.90;;;;;;5115791;28;20174;-75
2022/05/10 08:57:00;;;;;;;4.47;4.18;;;20.20;99.90;;;;;;5115498;28;20542;-75
2022/05/10 08:59:51;;;;;;;4.40;4.10;;;20.30;99.90;;;;;;5115072;28;20201;-75
2022/05/10 09:02:22;;;;;;;5.60;5.10;;;20.30;99.90;;;;;;5115406;28;20169;-75
2022/05/10 09:04:59;;;;;;;7.30;4.13;;;20.40;99.90;;;;;;5115596;28;20227;-75
2022/05/10 09:07:43;;;;;;;4.80;4.43;;;20.40;99.90;;;;;;5115257;28;20541;-75
2022/05/10 09:10:11;;;;;;;4.70;4.38;;;20.60;99.90;;;;;;5115225;28;20166;-75
2022/05/10 09:13:02;;;;;;;5.93;4.63;;;20.70;99.90;;;;;;5115058;28;20162;-75
2022/05/10 09:15:33;;;;;;;4.22;3.90;;;20.90;99.90;;;;;;5107775;28;20203;-75
2022/05/10 09:17:58;;;;;;;4.25;3.78;;;21.00;99.90;;;;;;5115153;28;20277;-75
2022/05/10 09:20:24;;;;;;;4.50;4.10;;;21.20;99.90;;;;;;5115079;28;20213;-75
2022/05/10 09:23:00;;;;;;;5.93;4.20;;;21.30;99.90;;;;;;5115077;28;20181;-75
2022/05/10 09:25:45;;;;;;;3.70;3.45;;;21.50;99.90;;;;;;5115062;28;20213;-75
2022/05/10 09:28:20;;;;;;;4.22;3.92;;;21.60;99.90;;;;;;5113844;28;20170;-75
2022/05/10 09:34:45;;;;;;;4.53;4.13;;;21.80;99.90;;;;;;5115154;28;20172;-75
2022/05/10 09:36:26;;;;;;;3.88;3.30;;;22.10;99.90;;;;;;5114845;28;20231;-75
2022/05/10 09:39:11;;;;;;;4.13;3.83;;;22.30;99.90;;;;;;5114918;28;20166;-75
2022/05/10 09:41:41;;;;;;;4.40;3.65;;;22.40;99.90;;;;;;5096758;28;20166;-75
2022/05/10 09:44:21;;;;;;;6.40;3.33;;;22.60;99.90;;;;;;5113628;28;20539;-75
2022/05/10 09:46:48;;;;;;;6.78;3.75;;;22.70;99.90;;;;;;5114928;28;20266;-75
2022/05/10 09:49:35;;;;;;;4.00;3.78;;;22.90;99.90;;;;;;5114754;28;20249;-75
2022/05/10 09:52:00;;;;;;;4.63;3.95;;;22.90;99.90;;;;;;5113743;28;20511;-75
2022/05/10 09:54:32;;;;;;;4.40;4.10;;;23.00;99.90;;;;;;5114542;28;20174;-75
2022/05/10 09:56:58;;;;;;;6.63;3.83;;;23.00;99.90;;;;;;5114512;28;20269;-75
2022/05/10 09:59:28;;;;;;;4.55;4.07;;;23.00;99.90;;;;;;5114583;28;20245;-75
2022/05/10 10:01:56;;;;;;;3.90;3.70;;;23.00;99.90;;;;;;5114635;28;20253;-75
2022/05/10 10:04:28;;;;;;;4.38;4.00;;;22.80;99.90;;;;;;5114652;28;20166;-75
2022/05/10 10:07:16;;;;;;;4.93;3.58;;;22.80;99.90;;;;;;5114443;28;20174;-75
2022/05/10 10:09:47;;;;;;;4.53;4.22;;;22.80;99.90;;;;;;5113191;28;20631;-75
2022/05/10 10:12:37;;;;;;;6.30;4.25;;;22.80;99.90;;;;;;5114101;28;20177;-75
2022/05/10 10:15:41;;;;;;;6.25;4.50;;;22.80;99.90;;;;;;5112403;28;20238;-75
2022/05/10 10:18:09;;;;;;;8.43;4.15;;;22.90;99.90;;;;;;5111468;28;20221;-75
2022/05/10 10:20:56;;;;;;;4.60;4.20;;;23.00;99.90;;;;;;5114350;28;20207;-75
2022/05/10 10:23:30;;;;;;;4.75;4.35;;;23.00;99.90;;;;;;5112969;28;20178;-75
2022/05/10 10:26:12;;;;;;;7.32;3.92;;;23.20;99.90;;;;;;5114180;28;20174;-75
2022/05/10 10:28:52;;;;;;;5.18;4.78;;;23.30;99.90;;;;;;5114112;28;20167;-75
2022/05/10 10:31:27;;;;;;;9.60;4.25;;;23.30;99.90;;;;;;5113923;28;20200;-75
2022/05/10 10:34:04;;;;;;;4.97;4.55;;;23.20;99.90;;;;;;5112846;28;20204;-75
2022/05/10 10:37:08;;;;;;;4.38;4.07;;;23.10;99.90;;;;;;5112559;28;20300;-75
2022/05/10 10:39:47;;;;;;;7.20;4.30;;;23.00;99.90;;;;;;5113413;28;20639;-75
2022/05/10 10:42:37;;;;;;;7.25;4.07;;;23.00;99.90;;;;;;5113853;28;20173;-75
2022/05/10 10:45:08;;;;;;;5.53;4.25;;;23.00;99.90;;;;;;5113887;28;20163;-75
2022/05/10 10:47:42;;;;;;;5.15;4.00;;;23.10;99.90;;;;;;5113555;28;20178;-75
2022/05/10 10:50:20;;;;;;;4.95;4.55;;;23.20;99.90;;;;;;5113877;28;20169;-75
2022/05/10 10:52:45;;;;;;;4.60;4.30;;;23.30;99.90;;;;;;5113727;28;20170;-75
2022/05/10 10:55:11;;;;;;;4.45;4.05;;;23.30;99.90;;;;;;5113568;28;20170;-75
2022/05/10 10:57:56;;;;;;;4.70;4.30;;;23.40;99.90;;;;;;5113698;28;20302;-75
2022/05/10 11:00:37;;;;;;;4.93;4.10;;;23.20;99.90;;;;;;5112484;28;20181;-75
2022/05/10 11:03:24;;;;;;;4.00;3.63;;;23.10;99.90;;;;;;5113610;28;20197;-75
2022/05/10 11:05:52;;;;;;;4.32;4.03;;;23.10;99.90;;;;;;5112606;28;20190;-75
2022/05/10 11:08:44;;;;;;;4.00;3.60;;;23.10;99.90;;;;;;5112667;28;20178;-75
2022/05/10 11:11:17;;;;;;;7.90;3.88;;;23.40;99.90;;;;;;5113606;28;20169;-75
2022/05/10 11:14:13;;;;;;;4.05;3.70;;;23.70;99.90;;;;;;5113715;28;20163;-75
2022/05/10 11:16:57;;;;;;;3.95;3.75;;;23.90;99.90;;;;;;5112304;28;20193;-75
2022/05/10 11:19:31;;;;;;;3.75;3.53;;;24.00;99.90;;;;;;5113416;28;20194;-75
2022/05/10 11:22:28;;;;;;;3.65;3.35;;;24.10;99.90;;;;;;5113504;28;20161;-75
2022/05/10 11:24:55;;;;;;;5.38;3.15;;;24.00;99.90;;;;;;5116650;28;20241;-75
2022/05/10 11:27:39;;;;;;;6.18;3.25;;;24.00;99.90;;;;;;5117367;28;20511;-75
2022/05/10 11:30:08;;;;;;;8.52;3.50;;;23.90;99.90;;;;;;5117163;28;20223;-74
2022/05/10 11:33:04;;;;;;;3.95;3.63;;;23.90;99.90;;;;;;5117193;28;20563;-75
2022/05/10 11:35:44;;;;;;;5.13;3.55;;;24.10;99.90;;;;;;5117005;28;20177;-75
2022/05/10 11:38:17;;;;;;;7.85;3.42;;;24.10;99.90;;;;;;5116903;28;20217;-75
2022/05/10 11:41:06;;;;;;;4.43;2.70;;;24.00;99.90;;;;;;5117023;28;20513;-75
2022/05/10 11:44:01;;;;;;;5.47;3.53;;;24.00;99.90;;;;;;5117055;28;20159;-75
2022/05/10 11:46:44;;;;;;;6.20;3.05;;;24.00;99.90;;;;;;5117278;28;20569;-74
2022/05/10 11:49:31;;;;;;;4.78;3.33;;;24.10;99.90;;;;;;5116884;28;20166;-75
2022/05/10 11:52:03;;;;;;;5.00;3.10;;;24.10;99.90;;;;;;5115752;28;20167;-74
2022/05/10 11:54:36;;;;;;;4.53;2.67;;;24.10;99.90;;;;;;5116867;28;20192;-75
2022/05/10 11:57:03;;;;;;;3.63;3.30;;;24.00;99.90;;;;;;5116781;28;20187;-74
2022/05/10 11:59:34;;;;;;;6.35;3.08;;;24.00;99.90;;;;;;5116982;28;20502;-75
2022/05/10 12:02:01;;;;;;;3.13;2.92;;;23.90;99.90;;;;;;5116686;28;20173;-75
2022/05/10 12:04:46;;;;;;;4.63;2.92;;;23.90;99.90;;;;;;5116588;28;20677;-75
2022/05/10 12:07:20;;;;;;;2.72;2.53;;;23.80;99.90;;;;;;5116557;28;20510;-75
2022/05/10 12:09:52;;;;;;;3.05;2.85;;;23.90;99.90;;;;;;5116515;28;20170;-75
2022/05/10 12:12:33;;;;;;;3.35;2.53;;;24.10;99.90;;;;;;5116487;28;20200;-75
2022/05/10 12:24:07;;;;;;;4.07;3.10;;;24.10;99.90;;;;;;5116276;28;20173;-75
2022/05/10 12:26:47;;;;;;;5.22;3.03;;;24.00;99.90;;;;;;5116105;28;20166;-75
2022/05/10 12:29:37;;;;;;;3.03;2.83;;;24.10;99.90;;;;;;5116256;28;20194;-75
2022/05/10 12:32:09;;;;;;;3.55;3.25;;;24.10;99.90;;;;;;5116258;28;20635;-75
2022/05/10 12:34:40;;;;;;;3.85;3.20;;;24.30;99.90;;;;;;5114730;28;20172;-75
2022/05/10 12:37:27;;;;;;;6.88;3.13;;;24.40;99.90;;;;;;5115665;28;20222;-75
2022/05/10 12:40:11;;;;;;;9.75;3.10;;;24.50;99.90;;;;;;5115853;28;20280;-75
2022/05/10 12:42:51;;;;;;;7.03;2.90;;;24.60;99.90;;;;;;5115762;28;20193;-75
2022/05/10 12:45:35;;;;;;;3.45;2.80;;;24.60;99.90;;;;;;5116005;28;20167;-75
2022/05/10 12:48:26;;;;;;;4.45;3.13;;;24.60;99.90;;;;;;5116034;28;20252;-74
2022/05/10 12:51:02;;;;;;;3.25;2.88;;;24.70;99.90;;;;;;5114695;28;20526;-75
2022/05/10 12:53:29;;;;;;;4.45;2.95;;;24.90;99.90;;;;;;5114514;28;20631;-75
2022/05/10 12:56:12;;;;;;;4.50;3.40;;;25.00;99.90;;;;;;5115672;28;20512;-75
2022/05/10 12:58:44;;;;;;;4.53;3.20;;;24.90;99.90;;;;;;5115498;28;20198;-75
2022/05/10 13:01:14;;;;;;;3.60;3.30;;;24.70;99.90;;;;;;5115346;28;20173;-75
2022/05/10 13:03:46;;;;;;;3.70;2.80;;;24.80;99.90;;;;;;5115492;28;20688;-75
2022/05/10 13:06:19;;;;;;;4.50;3.03;;;24.80;99.90;;;;;;5114063;28;20261;-75
2022/05/10 13:09:29;;;;;;;7.65;3.40;;;25.00;99.90;;;;;;5114037;28;20261;-75
2022/05/10 13:12:21;;;;;;;7.25;3.50;;;25.10;99.90;;;;;;5090834;28;20218;-75
2022/05/10 13:14:52;;;;;;;5.22;3.13;;;25.00;99.90;;;;;;5113198;28;20194;-75
2022/05/10 13:17:27;;;;;;;4.10;3.70;;;24.90;99.90;;;;;;5114947;28;20237;-75
2022/05/10 13:19:53;;;;;;;3.03;2.83;;;24.90;99.90;;;;;;5115167;28;20179;-74
2022/05/10 13:22:20;;;;;;;3.63;2.90;;;25.00;99.90;;;;;;5113775;28;20166;-75
2022/05/10 13:24:51;;;;;;;3.55;3.17;;;25.10;99.90;;;;;;5113874;28;20561;-75
2022/05/10 13:27:34;;;;;;;4.03;3.75;;;25.10;99.90;;;;;;5114578;28;20182;-75
2022/05/10 13:30:22;;;;;;;3.97;2.60;;;24.90;99.90;;;;;;5113388;28;20640;-75
2022/05/10 13:32:52;;;;;;;10.32;2.70;;;24.60;99.90;;;;;;5113014;28;20191;-75
2022/05/10 13:35:26;;;;;;;3.00;2.80;;;24.30;99.90;;;;;;5113292;28;20170;-75
2022/05/10 13:38:01;;;;;;;4.88;3.28;;;24.20;99.90;;;;;;5114015;28;20218;-75
2022/05/10 13:40:48;;;;;;;5.05;3.03;;;24.20;99.90;;;;;;5113109;28;20226;-75
2022/05/10 13:43:23;;;;;;;4.63;3.08;;;24.20;99.90;;;;;;5114656;28;20159;-76
2022/05/10 13:45:55;;;;;;;3.78;3.42;;;24.10;99.90;;;;;;5112800;28;20257;-75
2022/05/10 13:48:37;;;;;;;9.15;3.35;;;24.10;99.90;;;;;;5114518;28;20174;-75
2022/05/10 13:51:23;;;;;;;6.63;3.42;;;24.00;99.90;;;;;;5113992;28;20623;-75
2022/05/10 13:53:56;;;;;;;4.88;3.90;;;24.00;99.90;;;;;;5114360;28;20174;-75
2022/05/10 13:56:27;;;;;;;7.00;3.67;;;23.90;99.90;;;;;;5113023;28;20215;-75
2022/05/10 13:58:53;;;;;;;3.95;3.58;;;24.00;99.90;;;;;;5114256;28;20292;-75
2022/05/10 14:01:49;;;;;;;9.30;3.30;;;24.10;99.90;;;;;;5113015;28;20173;-76
2022/05/10 14:04:17;;;;;;;5.00;3.38;;;24.10;99.90;;;;;;5114121;28;20166;-76
2022/05/10 14:06:57;;;;;;;3.83;3.50;;;24.20;99.90;;;;;;5114212;28;20169;-75
2022/05/10 14:09:26;;;;;;;6.40;3.28;;;24.10;99.90;;;;;;5114358;28;20166;-75
2022/05/10 14:11:57;;;;;;;3.58;3.00;;;24.30;99.90;;;;;;5114368;28;20209;-75
2022/05/10 14:14:28;;;;;;;5.13;3.55;;;24.30;99.90;;;;;;5113156;28;20530;-75
2022/05/10 14:16:59;;;;;;;5.85;4.07;;;24.30;99.90;;;;;;5113959;28;20186;-75
2022/05/10 14:19:50;;;;;;;3.47;3.13;;;24.30;99.90;;;;;;5112871;28;20166;-74
2022/05/10 14:22:20;;;;;;;7.55;3.33;;;24.30;99.90;;;;;;5113611;28;20696;-75
2022/05/10 14:24:46;;;;;;;5.47;2.90;;;24.20;99.90;;;;;;5113940;28;20173;-75
2022/05/10 14:27:24;;;;;;;3.40;3.17;;;24.20;99.90;;;;;;5113985;28;20170;-75
2022/05/10 14:29:58;;;;;;;6.68;3.28;;;24.10;99.90;;;;;;5113692;28;20635;-75
2022/05/10 14:32:24;;;;;;;3.80;2.70;;;24.10;99.90;;;;;;5112227;28;20567;-75
2022/05/10 14:34:55;;;;;;;3.42;3.20;;;24.10;99.90;;;;;;5113886;28;20166;-75
2022/05/10 14:37:26;;;;;;;4.53;3.38;;;24.30;99.90;;;;;;5113690;28;20212;-76
2022/05/10 14:39:53;;;;;;;8.48;3.53;;;24.40;99.90;;;;;;5112627;28;20177;-75
2022/05/10 14:42:34;;;;;;;3.40;2.72;;;24.40;99.90;;;;;;5113863;28;20529;-75
2022/05/10 14:45:14;;;;;;;3.80;3.60;;;24.30;99.90;;;;;;5112780;28;20181;-75
2022/05/10 14:47:40;;;;;;;9.63;3.45;;;24.20;99.90;;;;;;5113655;28;20169;-75
2022/05/10 14:50:27;;;;;;;3.42;3.10;;;24.10;99.90;;;;;;5113738;28;20188;-75
2022/05/10 14:53:12;;;;;;;5.90;3.75;;;24.30;99.90;;;;;;5113623;28;20178;-75
2022/05/10 14:55:41;;;;;;;3.45;3.15;;;24.30;99.90;;;;;;5113735;28;20163;-75
2022/05/10 14:58:14;;;;;;;6.82;3.40;;;24.50;99.90;;;;;;5112404;28;20274;-75
2022/05/10 15:00:44;;;;;;;3.28;3.13;;;24.90;99.90;;;;;;5116555;28;20168;-75
2022/05/10 15:03:16;;;;;;;8.68;3.33;;;25.20;99.90;;;;;;5117638;28;20219;-76
2022/05/10 15:05:44;;;;;;;4.65;3.00;;;25.70;99.90;;;;;;5117728;28;20163;-75
2022/05/10 15:08:11;;;;;;;5.10;4.13;;;26.10;99.90;;;;;;5116333;28;20223;-76
2022/05/10 15:10:38;;;;;;;4.20;3.97;;;26.50;99.90;;;;;;5116197;28;20171;-75
2022/05/10 15:13:10;;;;;;;9.48;3.80;;;26.60;99.90;;;;;;5117572;28;20666;-76
2022/05/10 15:15:46;;;;;;;5.22;3.58;;;26.30;99.90;;;;;;5116271;28;20182;-75
2022/05/10 15:20:56;;;;;;;4.22;3.28;;;25.50;99.90;;;;;;5117459;28;20173;-75
2022/05/10 15:23:23;;;;;;;3.65;3.35;;;25.40;99.90;;;;;;5116007;28;20514;-74
2022/05/10 15:25:51;;;;;;;4.15;3.42;;;25.40;99.90;;;;;;5115982;28;20177;-75
2022/05/10 15:28:17;;;;;;;4.97;3.47;;;25.60;99.90;;;;;;5116026;28;20261;-75
2022/05/10 15:30:43;;;;;;;3.00;2.80;;;25.50;99.90;;;;;;5117243;28;20245;-75
2022/05/10 15:33:08;;;;;;;3.08;2.83;;;25.30;99.90;;;;;;5117308;28;20193;-75
2022/05/10 15:35:34;;;;;;;4.75;3.33;;;25.10;99.90;;;;;;5117085;28;20253;-75
2022/05/10 15:38:00;;;;;;;5.20;3.28;;;25.00;99.90;;;;;;5116950;28;20256;-75
2022/05/10 15:40:28;;;;;;;4.40;3.22;;;24.80;99.90;;;;;;5117137;28;20200;-75
2022/05/10 15:42:55;;;;;;;6.95;3.10;;;24.80;99.90;;;;;;5115689;28;20167;-75
2022/05/10 15:45:22;;;;;;;3.65;2.78;;;24.90;99.90;;;;;;5116813;28;20163;-75
2022/05/10 15:47:49;;;;;;;3.58;3.30;;;25.10;99.90;;;;;;5115631;28;20166;-75
2022/05/10 15:50:25;;;;;;;2.97;2.78;;;25.40;99.90;;;;;;5117007;28;20195;-75
2022/05/10 15:52:51;;;;;;;3.95;3.75;;;25.60;99.90;;;;;;5116772;28;20168;-75
2022/05/10 15:55:17;;;;;;;3.05;2.80;;;25.70;99.90;;;;;;5116648;28;20170;-75
2022/05/10 15:57:43;;;;;;;2.88;2.63;;;25.80;99.90;;;;;;5116578;28;20190;-75
2022/05/10 16:00:10;;;;;;;5.05;3.42;;;25.70;99.90;;;;;;5116188;28;20239;-75
2022/05/10 16:02:36;;;;;;;3.30;3.00;;;25.70;99.90;;;;;;5116663;28;20224;-75
2022/05/10 16:05:03;;;;;;;3.35;2.75;;;25.60;99.90;;;;;;5116690;28;20663;-75
2022/05/10 16:07:30;;;;;;;3.97;3.47;;;25.40;99.90;;;;;;5116524;28;20522;-75
2022/05/10 16:09:56;;;;;;;5.68;3.58;;;25.10;99.90;;;;;;5116033;28;20636;-75
2022/05/10 16:12:22;;;;;;;3.28;2.92;;;24.90;99.90;;;;;;5116273;28;20198;-75
2022/05/10 16:14:48;;;;;;;2.97;2.88;;;25.00;99.90;;;;;;5116376;28;20549;-75
2022/05/10 16:17:14;;;;;;;3.90;3.20;;;24.80;99.90;;;;;;5115020;28;20251;-75
2022/05/10 16:19:40;;;;;;;5.20;3.33;;;24.70;99.90;;;;;;5116358;28;20170;-75
2022/05/10 16:22:06;;;;;;;17.45;5.72;;;24.50;99.90;;;;;;5116436;28;20171;-75
2022/05/10 16:24:33;;;;;;;7.32;4.63;;;24.50;99.90;;;;;;5116213;28;20200;-75
2022/05/10 16:29:46;;;;;;;3.35;2.83;;;24.90;99.90;;;;;;5116202;28;20174;-75
2022/05/10 16:32:18;;;;;;;6.45;3.42;;;25.40;99.90;;;;;;5116155;28;20505;-75
2022/05/10 16:34:44;;;;;;;3.17;2.97;;;25.60;99.90;;;;;;5116008;28;20620;-75
2022/05/10 16:37:11;;;;;;;4.22;2.80;;;25.30;99.90;;;;;;5116032;28;20217;-75
2022/05/10 16:39:37;;;;;;;4.50;3.45;;;25.00;99.90;;;;;;5116068;28;20499;-75
2022/05/10 16:42:08;;;;;;;5.18;2.90;;;24.60;99.90;;;;;;5115793;28;20159;-75
2022/05/10 16:44:38;;;;;;;5.68;3.03;;;24.40;99.90;;;;;;5114723;28;20171;-75
2022/05/10 16:47:06;;;;;;;3.42;3.20;;;24.10;99.90;;;;;;5115619;28;20196;-75
2022/05/10 16:49:32;;;;;;;3.72;2.90;;;24.00;99.90;;;;;;5115621;28;20562;-75
2022/05/10 16:51:59;;;;;;;3.55;3.35;;;23.80;99.90;;;;;;5114264;28;20224;-75
2022/05/10 16:54:29;;;;;;;3.78;3.55;;;23.60;99.90;;;;;;5114039;28;20198;-75
2022/05/10 16:57:00;;;;;;;4.72;2.85;;;23.50;99.90;;;;;;5115398;28;20196;-75
2022/05/10 16:59:26;;;;;;;7.18;3.20;;;23.40;99.90;;;;;;5115407;28;20165;-75
2022/05/10 17:01:52;;;;;;;8.13;2.97;;;23.40;99.90;;;;;;5115825;28;20725;-75
2022/05/10 17:04:17;;;;;;;3.50;3.30;;;23.60;99.90;;;;;;5115301;28;20159;-75
2022/05/10 17:06:44;;;;;;;3.85;3.55;;;23.60;99.90;;;;;;5115247;28;20163;-74
2022/05/10 17:09:10;;;;;;;6.40;3.80;;;23.60;99.90;;;;;;5115432;28;20162;-75
2022/05/10 17:11:37;;;;;;;3.10;3.00;;;23.70;99.90;;;;;;5115447;28;20158;-75
2022/05/10 17:14:03;;;;;;;3.25;3.00;;;23.60;99.90;;;;;;5114212;28;20257;-75
2022/05/10 17:16:28;;;;;;;4.63;3.40;;;23.40;99.90;;;;;;5115347;28;20190;-75
2022/05/10 17:18:54;;;;;;;5.90;3.05;;;23.30;99.90;;;;;;5115307;28;20163;-75
2022/05/10 17:21:20;;;;;;;3.88;3.25;;;23.30;99.90;;;;;;5114246;28;20163;-75
2022/05/10 17:23:46;;;;;;;3.83;3.50;;;23.20;99.90;;;;;;5115166;28;20215;-75
2022/05/10 17:26:13;;;;;;;3.50;3.30;;;23.10;99.90;;;;;;5115091;28;20166;-74
2022/05/10 17:28:44;;;;;;;3.30;3.10;;;22.90;99.90;;;;;;5114968;28;20169;-75
2022/05/10 17:31:13;;;;;;;3.20;3.00;;;22.90;99.90;;;;;;5113609;28;20491;-74
2022/05/10 17:33:40;;;;;;;4.13;3.22;;;22.80;99.90;;;;;;5112910;28;20197;-75
2022/05/10 17:36:08;;;;;;;4.93;3.42;;;22.70;99.90;;;;;;5114388;28;20169;-75
2022/05/10 17:38:34;;;;;;;3.85;3.22;;;22.80;99.90;;;;;;5114347;28;20209;-75
2022/05/10 17:41:04;;;;;;;3.00;2.80;;;22.80;99.90;;;;;;5114470;28;20166;-75
2022/05/10 17:43:29;;;;;;;3.03;2.80;;;22.70;99.90;;;;;;5114402;28;20174;-75
2022/05/10 17:45:57;;;;;;;3.30;3.03;;;22.70;99.90;;;;;;5114365;28;20166;-75
2022/05/10 17:48:24;;;;;;;3.00;2.80;;;22.70;99.90;;;;;;5114129;28;20166;-75
2022/05/10 17:50:50;;;;;;;8.45;3.08;;;22.60;99.90;;;;;;5114337;28;20175;-75
2022/05/10 17:53:18;;;;;;;3.97;3.65;;;22.60;99.90;;;;;;5114212;28;20167;-75
2022/05/10 17:55:45;;;;;;;4.53;3.50;;;22.50;99.90;;;;;;5112695;28;20658;-75
2022/05/10 17:58:11;;;;;;;3.47;3.17;;;22.40;99.90;;;;;;5112486;28;20202;-74
2022/05/10 18:00:39;;;;;;;5.43;3.40;;;22.30;99.90;;;;;;5114144;28;20175;-75
2022/05/10 18:03:05;;;;;;;7.28;3.05;;;22.30;99.90;;;;;;5114038;28;20158;-75
